Time;durP1;ratioP1;P1;durP2;ratioP2;P2;SDS_P1;SDS_P2;PMS_P1;PMS_P2;Temp;Humidity;BMP_temperature;BMP_pressure;BME280_temperature;BME280_humidity;BME280_pressure;Samples;Min_cycle;Max_cycle;Signal;HPM_P1;HPM_P2
2022/01/27 00:05:25;;;;;;;31.65;10.77;;;;;;;1.88;100.00;101678.38;5013296;28;20026;-62
2022/01/27 00:10:47;;;;;;;25.60;10.45;;;;;;;1.89;100.00;101678.44;5013102;28;20030;-62
2022/01/27 00:13:15;;;;;;;24.80;9.63;;;;;;;1.88;100.00;101676.63;5013466;28;20025;-62
2022/01/27 00:15:47;;;;;;;28.15;9.85;;;;;;;1.96;100.00;101680.34;5009692;28;20030;-62
2022/01/27 00:18:18;;;;;;;26.02;9.88;;;;;;;1.95;100.00;101678.59;5012795;28;20673;-62
2022/01/27 00:20:47;;;;;;;27.90;10.15;;;;;;;1.93;100.00;101682.91;5012721;28;20037;-62
2022/01/27 00:23:14;;;;;;;28.23;9.82;;;;;;;1.94;100.00;101682.06;5013581;28;20092;-62
2022/01/27 00:25:39;;;;;;;30.65;11.95;;;;;;;1.87;100.00;101669.63;5010384;28;20025;-62
2022/01/27 00:28:05;;;;;;;32.00;9.80;;;;;;;1.81;100.00;101671.19;5012230;28;20052;-62
2022/01/27 00:30:33;;;;;;;27.13;10.55;;;;;;;1.78;100.00;101666.72;5012681;28;20026;-62
2022/01/27 00:32:58;;;;;;;27.90;10.65;;;;;;;1.76;100.00;101663.19;5012508;28;20065;-62
2022/01/27 00:35:24;;;;;;;23.15;9.20;;;;;;;1.74;100.00;101667.50;5012735;28;20029;-62
2022/01/27 00:37:49;;;;;;;26.65;10.25;;;;;;;1.69;100.00;101660.31;4993665;28;20019;-62
2022/01/27 00:40:15;;;;;;;30.52;10.57;;;;;;;1.58;100.00;101649.53;4992087;28;20077;-62
2022/01/27 00:42:42;;;;;;;27.52;10.27;;;;;;;1.45;100.00;101634.25;4994133;28;20437;-62
2022/01/27 00:45:09;;;;;;;19.52;10.18;;;;;;;1.48;100.00;101649.22;4993458;28;20022;-62
2022/01/27 00:47:35;;;;;;;24.85;9.98;;;;;;;1.58;100.00;101638.16;4994568;28;20537;-62
2022/01/27 00:50:00;;;;;;;33.75;9.13;;;;;;;1.61;100.00;101640.84;4993200;28;20046;-62
2022/01/27 00:52:48;;;;;;;25.85;10.93;;;;;;;1.64;100.00;101631.34;4992979;28;20037;-62
2022/01/27 00:55:15;;;;;;;27.35;10.57;;;;;;;1.60;100.00;101636.47;4993009;28;20022;-62
2022/01/27 01:00:32;;;;;;;25.83;9.82;;;;;;;1.78;100.00;101622.13;4993423;28;20089;-62
2022/01/27 01:03:03;;;;;;;33.88;10.32;;;;;;;1.74;100.00;101629.88;4994527;28;20502;-62
2022/01/27 01:07:57;;;;;;;22.58;10.45;;;;;;;1.77;100.00;101635.19;4992635;28;20036;-62
2022/01/27 01:15:51;;;;;;;;;;;;;;;1.81;100.00;101637.06;4992552;28;20128;-62
2022/01/27 01:18:39;;;;;;;29.48;10.35;;;;;;;1.79;100.00;101637.03;4994555;28;19968;-62
2022/01/27 01:21:29;;;;;;;29.55;11.20;;;;;;;1.83;100.00;101649.38;4992345;28;20505;-62
2022/01/27 01:32:16;;;;;;;26.55;11.10;;;;;;;1.77;100.00;101630.84;4992760;28;20500;-62
2022/01/27 01:34:46;;;;;;;20.67;9.70;;;;;;;1.70;100.00;101630.66;4992330;28;20478;-62
2022/01/27 01:37:11;;;;;;;30.10;10.98;;;;;;;1.78;100.00;101627.38;4991867;28;20023;-62
2022/01/27 01:39:37;;;;;;;22.08;10.07;;;;;;;1.78;100.00;101626.50;4991539;28;20402;-62
2022/01/27 01:42:06;;;;;;;27.20;9.77;;;;;;;1.75;100.00;101629.00;4991549;28;20494;-62
2022/01/27 01:44:32;;;;;;;25.95;10.40;;;;;;;1.84;100.00;101626.66;4992341;28;20034;-62
2022/01/27 01:46:59;;;;;;;28.90;11.20;;;;;;;1.80;100.00;101630.94;4991942;28;20386;-62
2022/01/27 01:49:26;;;;;;;27.20;11.40;;;;;;;1.75;100.00;101635.16;4991133;28;20022;-62
2022/01/27 01:52:02;;;;;;;30.10;10.45;;;;;;;1.68;100.00;101629.72;5005586;28;20022;-62
2022/01/27 01:54:27;;;;;;;30.13;10.02;;;;;;;1.71;100.00;101620.19;5008192;28;20030;-62
2022/01/27 01:56:53;;;;;;;29.48;11.00;;;;;;;1.83;100.00;101623.16;5011505;28;20026;-62
2022/01/27 01:59:19;;;;;;;29.20;11.18;;;;;;;1.82;100.00;101613.50;5010474;28;20506;-62
2022/01/27 02:01:45;;;;;;;25.15;10.07;;;;;;;1.84;100.00;101617.06;5010866;28;20084;-62
2022/01/27 02:04:11;;;;;;;28.95;9.88;;;;;;;1.82;100.00;101608.25;5011611;28;20478;-62
2022/01/27 02:06:49;;;;;;;23.50;10.25;;;;;;;1.85;100.00;101612.69;5003375;28;20470;-62
2022/01/27 02:19:56;;;;;;;28.33;10.40;;;;;;;1.85;100.00;101597.84;4990698;28;20037;-62
2022/01/27 02:22:22;;;;;;;27.27;9.10;;;;;;;1.83;100.00;101610.03;4991155;28;20031;-62
2022/01/27 02:24:50;;;;;;;28.88;10.85;;;;;;;1.84;100.00;101616.16;4991610;28;20019;-62
2022/01/27 02:27:17;;;;;;;26.52;10.95;;;;;;;1.84;100.00;101606.56;4991175;28;20034;-62
2022/01/27 02:29:44;;;;;;;29.52;11.18;;;;;;;1.88;100.00;101613.66;4990729;28;20061;-62
2022/01/27 02:32:11;;;;;;;28.17;11.80;;;;;;;1.80;100.00;101604.69;4990810;28;20048;-62
2022/01/27 02:34:37;;;;;;;33.33;12.45;;;;;;;1.84;100.00;101603.06;4996764;28;20033;-62
2022/01/27 02:37:03;;;;;;;34.97;12.23;;;;;;;1.84;100.00;101609.19;4998739;28;20026;-62
2022/01/27 02:39:29;;;;;;;30.40;10.38;;;;;;;1.82;100.00;101616.13;4990681;28;20049;-62
2022/01/27 02:41:54;;;;;;;26.90;10.90;;;;;;;1.88;100.00;101608.41;4990542;28;20026;-62
2022/01/27 02:44:29;;;;;;;28.98;12.05;;;;;;;1.89;100.00;101606.69;4991002;28;20129;-62
2022/01/27 02:47:10;;;;;;;32.88;10.98;;;;;;;1.88;100.00;101603.16;4990847;28;20092;-62
2022/01/27 02:49:36;;;;;;;34.60;11.48;;;;;;;1.86;100.00;101596.13;4990530;28;20033;-62
2022/01/27 02:52:02;;;;;;;25.05;10.38;;;;;;;1.95;100.00;101604.22;4992571;28;20517;-62
2022/01/27 02:54:27;;;;;;;32.17;11.02;;;;;;;1.91;100.00;101603.25;4990832;28;20029;-62
2022/01/27 02:56:53;;;;;;;35.97;11.32;;;;;;;1.88;100.00;101608.41;4990968;28;20031;-62
2022/01/27 02:59:20;;;;;;;26.63;10.73;;;;;;;1.75;100.00;101593.19;4990292;28;20022;-62
2022/01/27 03:01:48;;;;;;;39.33;15.05;;;;;;;1.79;100.00;101616.06;4991654;28;20438;-62
2022/01/27 03:04:15;;;;;;;37.67;14.25;;;;;;;1.70;100.00;101612.28;4997526;28;20486;-62
2022/01/27 03:06:41;;;;;;;45.28;16.42;;;;;;;1.70;100.00;101612.28;5003467;28;20493;-62
2022/01/27 03:09:06;;;;;;;46.55;13.57;;;;;;;1.69;100.00;101616.63;5000947;28;20026;-62
2022/01/27 03:11:40;;;;;;;45.28;14.52;;;;;;;1.72;100.00;101616.72;4994275;28;20394;-62
2022/01/27 03:14:06;;;;;;;44.53;15.68;;;;;;;1.76;100.00;101623.84;4994493;28;20157;-62
2022/01/27 03:16:32;;;;;;;43.05;15.98;;;;;;;1.80;100.00;101630.94;4994471;28;20398;-62
2022/01/27 03:18:57;;;;;;;47.13;15.48;;;;;;;1.78;100.00;101644.88;4994113;28;20447;-62
2022/01/27 03:21:23;;;;;;;44.50;15.90;;;;;;;1.73;100.00;101646.47;4994670;28;20030;-62
2022/01/27 03:23:48;;;;;;;48.88;15.38;;;;;;;1.71;100.00;101651.66;4996326;28;20157;-62
2022/01/27 03:26:14;;;;;;;43.70;14.25;;;;;;;1.65;100.00;101651.47;4994604;28;20034;-62
2022/01/27 03:28:39;;;;;;;43.00;15.65;;;;;;;1.69;100.00;101653.34;5004799;28;20022;-62
2022/01/27 03:31:05;;;;;;;50.15;16.38;;;;;;;1.70;100.00;101654.25;5013438;28;20034;-62
2022/01/27 03:33:30;;;;;;;46.05;15.80;;;;;;;1.61;100.00;101633.00;5013682;28;20030;-62
2022/01/27 03:35:56;;;;;;;50.30;15.43;;;;;;;1.55;100.00;101628.44;5013797;28;20029;-62
2022/01/27 03:38:21;;;;;;;49.40;14.77;;;;;;;1.54;100.00;101618.81;5013072;28;20108;-62
2022/01/27 03:40:47;;;;;;;49.92;15.73;;;;;;;1.46;100.00;101612.47;5013353;28;20040;-62
2022/01/27 03:43:12;;;;;;;44.17;15.50;;;;;;;1.49;100.00;101606.41;5013546;28;20026;-62
2022/01/27 03:45:38;;;;;;;44.67;14.90;;;;;;;1.47;100.00;101610.75;5013573;28;20026;-62
2022/01/27 03:48:04;;;;;;;41.70;14.80;;;;;;;1.43;100.00;101593.13;5002260;28;20562;-61
2022/01/27 03:50:30;;;;;;;56.78;16.20;;;;;;;1.43;100.00;101594.03;4993636;28;20033;-62
2022/01/27 03:52:55;;;;;;;53.13;16.75;;;;;;;1.43;100.00;101591.41;4993472;28;20026;-62
2022/01/27 03:55:21;;;;;;;47.20;14.85;;;;;;;1.46;100.00;101586.25;4994041;28;20386;-62
2022/01/27 03:57:46;;;;;;;46.97;16.10;;;;;;;1.56;100.00;101582.16;4995958;28;20026;-62
2022/01/27 04:00:12;;;;;;;47.92;15.90;;;;;;;1.60;100.00;101584.88;4993319;28;20030;-62
2022/01/27 04:02:49;;;;;;;37.67;14.23;;;;;;;1.53;100.00;101587.31;4993576;28;20116;-62
2022/01/27 04:05:15;;;;;;;43.63;14.30;;;;;;;1.43;100.00;101588.78;4993502;28;20033;-62
2022/01/27 04:07:42;;;;;;;45.78;15.02;;;;;;;1.47;100.00;101582.78;5010561;28;20026;-62
2022/01/27 04:10:10;;;;;;;38.45;13.10;;;;;;;1.40;100.00;101591.28;5013051;28;20026;-62
2022/01/27 04:12:36;;;;;;;49.10;15.02;;;;;;;1.39;100.00;101589.53;5009437;28;20026;-62
2022/01/27 04:15:01;;;;;;;35.80;14.48;;;;;;;1.44;100.00;101602.75;5012661;28;20042;-62
2022/01/27 04:17:26;;;;;;;37.55;12.43;;;;;;;1.45;100.00;101589.69;5013142;28;20042;-62
2022/01/27 04:19:52;;;;;;;38.25;12.80;;;;;;;1.53;100.00;101582.06;5012274;28;20072;-62
2022/01/27 04:22:17;;;;;;;39.97;13.52;;;;;;;1.47;100.00;101587.16;5013118;28;20429;-61
2022/01/27 04:24:44;;;;;;;34.08;13.30;;;;;;;1.46;100.00;101596.72;5012949;28;20498;-61
2022/01/27 04:27:17;;;;;;;35.22;14.10;;;;;;;1.41;100.00;101602.69;5012741;28;20022;-62
2022/01/27 04:29:52;;;;;;;42.03;13.70;;;;;;;1.32;100.00;101596.31;5012434;28;20069;-62
2022/01/27 04:32:27;;;;;;;39.55;12.82;;;;;;;1.45;100.00;101594.06;5013038;28;20593;-62
2022/01/27 04:34:55;;;;;;;38.38;13.18;;;;;;;1.45;100.00;101589.69;5012757;28;20034;-62
2022/01/27 04:37:24;;;;;;;38.92;13.18;;;;;;;1.50;100.00;101584.59;4998570;28;20030;-63
2022/01/27 04:39:59;;;;;;;33.10;12.95;;;;;;;1.55;100.00;101580.38;4997840;28;20030;-62
2022/01/27 04:42:40;;;;;;;38.22;12.43;;;;;;;1.54;100.00;101571.63;5012885;28;20092;-62
2022/01/27 04:45:08;;;;;;;75.15;15.60;;;;;;;1.54;100.00;101565.47;5012167;28;20068;-62
2022/01/27 04:47:39;;;;;;;39.38;12.75;;;;;;;1.54;100.00;101568.09;5012971;28;20089;-62
2022/01/27 04:50:05;;;;;;;36.88;13.23;;;;;;;1.51;100.00;101574.16;5011918;28;20050;-62
2022/01/27 04:52:34;;;;;;;42.90;12.77;;;;;;;1.57;100.00;101581.28;5012243;28;20076;-62
2022/01/27 04:55:07;;;;;;;39.15;13.25;;;;;;;1.42;100.00;101589.59;5012058;28;20040;-62
2022/01/27 04:57:33;;;;;;;34.60;13.13;;;;;;;1.43;100.00;101586.16;4997557;28;20770;-62
2022/01/27 04:59:59;;;;;;;39.28;12.20;;;;;;;1.43;100.00;101586.16;4992188;28;20030;-62
2022/01/27 05:02:36;;;;;;;36.33;13.13;;;;;;;1.38;100.00;101582.53;4995314;28;20023;-62
2022/01/27 05:05:02;;;;;;;37.33;13.30;;;;;;;1.36;100.00;101576.34;4992055;28;20034;-62
2022/01/27 05:07:28;;;;;;;35.15;12.98;;;;;;;1.24;100.00;101584.72;5007880;28;20360;-62
2022/01/27 05:09:59;;;;;;;39.22;13.27;;;;;;;1.32;100.00;101577.06;4996883;28;20030;-63
2022/01/27 05:12:34;;;;;;;47.58;13.60;;;;;;;1.30;100.00;101573.56;4992504;28;20026;-62
2022/01/27 05:15:00;;;;;;;39.53;14.55;;;;;;;1.34;100.00;101560.56;4992384;28;20069;-62
2022/01/27 05:17:26;;;;;;;43.80;14.68;;;;;;;1.20;100.00;101561.88;4994986;28;20041;-62
2022/01/27 05:19:51;;;;;;;29.50;12.80;;;;;;;1.11;100.00;101565.97;4990999;28;20487;-62
2022/01/27 05:22:17;;;;;;;44.78;14.30;;;;;;;1.09;100.00;101557.16;4991829;28;20390;-62
2022/01/27 05:24:42;;;;;;;43.88;14.20;;;;;;;1.04;100.00;101569.25;4991698;28;20057;-62
2022/01/27 05:27:08;;;;;;;36.60;14.80;;;;;;;0.98;100.00;101558.59;4992424;28;20031;-62
2022/01/27 05:29:33;;;;;;;42.22;16.08;;;;;;;1.01;100.00;101569.16;4993294;28;20026;-63
2022/01/27 05:31:59;;;;;;;34.85;14.38;;;;;;;1.10;100.00;101564.19;5010846;28;20080;-62
2022/01/27 05:34:24;;;;;;;38.05;14.52;;;;;;;1.16;100.00;101561.75;5011755;28;20025;-62
2022/01/27 05:36:49;;;;;;;40.83;15.68;;;;;;;1.20;100.00;101572.38;5010876;28;20648;-63
2022/01/27 05:39:15;;;;;;;36.28;12.43;;;;;;;1.12;100.00;101573.88;5011022;28;20088;-63
2022/01/27 05:41:42;;;;;;;39.92;16.25;;;;;;;1.18;100.00;101571.47;5011517;28;20025;-63
2022/01/27 05:44:07;;;;;;;44.67;11.10;;;;;;;1.24;100.00;101575.97;5007290;28;20018;-63
2022/01/27 05:46:33;;;;;;;45.40;13.93;;;;;;;1.23;100.00;101574.22;4991668;28;20388;-63
2022/01/27 05:48:58;;;;;;;33.05;12.60;;;;;;;1.21;100.00;101568.03;4991281;28;20406;-63
2022/01/27 05:51:23;;;;;;;41.25;12.88;;;;;;;1.27;100.00;101579.56;4991496;28;20105;-63
2022/01/27 05:53:49;;;;;;;39.15;14.48;;;;;;;1.24;100.00;101583.81;4991718;28;20026;-63
2022/01/27 05:56:14;;;;;;;34.42;13.05;;;;;;;1.23;100.00;101582.97;4993436;28;20034;-63
2022/01/27 05:58:40;;;;;;;41.25;14.80;;;;;;;1.24;100.00;101600.44;4991862;28;20026;-63
2022/01/27 06:01:05;;;;;;;34.00;13.18;;;;;;;1.32;100.00;101603.28;4990819;28;20037;-63
2022/01/27 06:03:31;;;;;;;38.72;14.15;;;;;;;1.40;100.00;101603.53;4991607;28;20022;-62
2022/01/27 06:05:56;;;;;;;31.38;12.00;;;;;;;1.42;100.00;101599.22;4994324;28;20087;-62
2022/01/27 06:08:22;;;;;;;38.58;12.23;;;;;;;1.37;100.00;101606.06;5011122;28;20108;-62
2022/01/27 06:10:47;;;;;;;31.42;11.02;;;;;;;1.35;100.00;101617.38;5006685;28;20386;-62
2022/01/27 06:13:13;;;;;;;36.97;14.93;;;;;;;1.39;100.00;101610.50;5011067;28;20099;-62
2022/01/27 06:15:38;;;;;;;35.80;13.70;;;;;;;1.47;100.00;101611.59;5011323;28;20034;-62
2022/01/27 06:18:04;;;;;;;38.22;15.25;;;;;;;1.40;100.00;101617.50;5009776;28;20045;-63
2022/01/27 06:20:30;;;;;;;30.70;11.75;;;;;;;1.40;99.98;101614.88;5008430;28;20034;-63
2022/01/27 06:22:57;;;;;;;24.15;11.27;;;;;;;1.35;100.00;101620.00;5010399;28;20033;-63
2022/01/27 06:25:24;;;;;;;27.55;10.52;;;;;;;1.39;100.00;101631.47;5010309;28;20778;-63
2022/01/27 06:27:49;;;;;;;31.52;12.07;;;;;;;1.37;100.00;101627.91;5010043;28;20106;-63
2022/01/27 06:30:15;;;;;;;31.95;12.95;;;;;;;1.45;100.00;101639.50;5009837;28;20481;-62
2022/01/27 06:32:41;;;;;;;29.02;11.18;;;;;;;1.51;100.00;101637.09;5010635;28;20026;-62
2022/01/27 06:35:07;;;;;;;34.55;11.70;;;;;;;1.55;99.94;101636.31;5011036;28;20033;-62
2022/01/27 06:37:33;;;;;;;32.40;11.23;;;;;;;1.60;100.00;101634.72;4994135;28;20092;-62
2022/01/27 06:39:59;;;;;;;29.52;10.43;;;;;;;1.59;100.00;101634.66;4989704;28;20390;-63
2022/01/27 06:42:25;;;;;;;38.13;12.07;;;;;;;1.58;100.00;101632.91;4989364;28;20036;-63
2022/01/27 06:44:51;;;;;;;32.10;11.30;;;;;;;1.47;100.00;101615.97;4994166;28;20101;-62
2022/01/27 06:47:16;;;;;;;31.23;12.48;;;;;;;1.56;99.96;101637.22;4990146;28;20062;-62
2022/01/27 06:49:41;;;;;;;27.05;8.75;;;;;;;1.53;99.75;101630.16;4990086;28;20034;-63
2022/01/27 06:52:07;;;;;;;22.30;8.50;;;;;;;1.49;100.00;101633.53;4991375;28;20027;-63
2022/01/27 06:54:33;;;;;;;20.70;7.88;;;;;;;1.42;100.00;101644.66;5003959;28;20091;-62
2022/01/27 06:57:00;;;;;;;19.42;7.75;;;;;;;1.33;100.00;101620.81;5010277;28;20496;-63
2022/01/27 06:59:25;;;;;;;26.77;10.85;;;;;;;1.40;100.00;101632.38;5010157;28;20061;-63
2022/01/27 07:01:51;;;;;;;51.35;22.08;;;;;;;1.40;100.00;101628.00;5010292;28;20026;-62
2022/01/27 07:04:16;;;;;;;28.25;13.43;;;;;;;1.48;100.00;101621.28;5010577;28;20029;-63
2022/01/27 07:06:42;;;;;;;22.10;9.80;;;;;;;1.45;99.79;101626.41;5005852;28;20030;-62
2022/01/27 07:09:07;;;;;;;38.47;15.18;;;;;;;1.43;100.00;101627.22;5010071;28;20449;-63
2022/01/27 07:11:32;;;;;;;45.17;19.83;;;;;;;1.44;99.07;101632.50;5006735;28;20076;-63
2022/01/27 07:13:58;;;;;;;32.80;15.75;;;;;;;1.49;99.57;101630.91;5010232;28;20072;-62
2022/01/27 07:16:23;;;;;;;217.82;54.78;;;;;;;1.50;98.96;101626.56;5011443;28;20026;-63
2022/01/27 07:18:51;;;;;;;118.75;40.53;;;;;;;1.44;99.26;101627.25;5009582;28;20498;-63
2022/01/27 07:21:16;;;;;;;63.92;29.83;;;;;;;1.50;99.46;101635.28;5006707;28;20084;-62
2022/01/27 07:23:42;;;;;;;58.20;17.30;;;;;;;1.49;99.14;101633.53;5010547;28;20042;-62
2022/01/27 07:26:08;;;;;;;38.22;13.68;;;;;;;1.51;98.75;101629.22;5010142;28;20084;-62
2022/01/27 07:28:33;;;;;;;22.75;7.95;;;;;;;1.39;98.02;101631.47;5009613;28;20049;-62
2022/01/27 07:31:00;;;;;;;22.88;7.80;;;;;;;1.44;98.83;101640.34;5009647;28;20082;-62
2022/01/27 07:33:26;;;;;;;20.00;7.85;;;;;;;1.48;99.02;101642.25;5010322;28;20040;-62
2022/01/27 07:35:51;;;;;;;22.45;7.95;;;;;;;1.49;98.52;101659.75;5007403;28;20037;-62
2022/01/27 07:38:16;;;;;;;19.42;7.22;;;;;;;1.46;98.36;101667.50;4990838;28;20514;-62
2022/01/27 07:40:42;;;;;;;14.35;7.07;;;;;;;1.49;97.44;101672.84;4992081;28;20466;-62
2022/01/27 07:43:10;;;;;;;19.27;6.90;;;;;;;1.45;98.12;101667.47;4989791;28;20113;-62
2022/01/27 07:45:35;;;;;;;22.15;7.45;;;;;;;1.42;97.95;101668.25;4992861;28;20062;-62
2022/01/27 07:48:01;;;;;;;21.58;7.43;;;;;;;1.39;97.46;101660.31;4996012;28;20105;-63
2022/01/27 07:50:29;;;;;;;19.02;8.63;;;;;;;1.45;97.72;101655.22;5012736;28;20482;-62
2022/01/27 07:52:55;;;;;;;26.17;9.98;;;;;;;1.43;97.85;101659.56;5011928;28;20032;-62
2022/01/27 07:55:21;;;;;;;24.63;7.75;;;;;;;1.41;97.73;101650.75;5011241;28;20062;-62
2022/01/27 07:57:46;;;;;;;17.73;8.13;;;;;;;1.43;97.47;101649.06;5012958;28;20426;-62
2022/01/27 08:00:12;;;;;;;19.92;7.22;;;;;;;1.43;97.15;101635.06;5012760;28;20049;-62
2022/01/27 08:02:38;;;;;;;19.63;9.15;;;;;;;1.41;97.81;101626.25;5013809;28;20037;-62
2022/01/27 08:05:04;;;;;;;17.63;7.60;;;;;;;1.40;97.22;101622.75;5013378;28;20657;-62
2022/01/27 08:07:29;;;;;;;25.92;10.23;;;;;;;1.43;97.88;101624.59;4997631;28;20034;-62
2022/01/27 08:09:55;;;;;;;24.08;9.15;;;;;;;1.41;97.49;101614.06;4993153;28;20068;-62
2022/01/27 08:12:20;;;;;;;27.08;10.98;;;;;;;1.45;97.85;101620.28;4995850;28;20116;-63
2022/01/27 08:14:45;;;;;;;24.38;10.50;;;;;;;1.49;97.89;101627.38;4993599;28;20042;-62
2022/01/27 08:17:11;;;;;;;29.52;12.38;;;;;;;1.48;97.20;101612.50;4993468;28;20097;-62
2022/01/27 08:19:36;;;;;;;31.77;11.10;;;;;;;1.46;96.94;101617.72;4992765;28;20109;-62
2022/01/27 08:22:02;;;;;;;25.02;9.60;;;;;;;1.44;96.46;101611.53;4992835;28;20045;-62
2022/01/27 08:24:27;;;;;;;30.48;11.95;;;;;;;1.38;96.82;101587.75;4993445;28;20079;-62
2022/01/27 08:26:59;;;;;;;30.33;14.57;;;;;;;1.49;97.57;101612.53;4993219;28;20489;-62
2022/01/27 08:29:34;;;;;;;33.53;13.43;;;;;;;1.56;96.84;101609.28;4992846;28;20423;-62
2022/01/27 08:32:02;;;;;;;31.60;11.90;;;;;;;1.54;96.72;101605.69;4993357;28;20018;-63
2022/01/27 08:34:33;;;;;;;31.90;10.75;;;;;;;1.59;96.46;101614.59;4993052;28;20065;-62
2022/01/27 08:37:00;;;;;;;34.88;12.65;;;;;;;1.54;96.36;101595.22;5006190;28;20124;-62
2022/01/27 08:39:26;;;;;;;25.40;9.48;;;;;;;1.44;96.16;101601.03;5011926;28;20034;-62
2022/01/27 08:41:52;;;;;;;24.30;10.45;;;;;;;1.39;95.91;101589.53;5012737;28;20041;-62
2022/01/27 08:44:17;;;;;;;29.20;10.50;;;;;;;1.37;96.18;101566.75;5012712;28;20064;-62
2022/01/27 08:46:43;;;;;;;29.33;10.88;;;;;;;1.48;96.57;101563.59;5012411;28;20057;-62
2022/01/27 08:49:09;;;;;;;36.13;12.27;;;;;;;1.44;95.60;101561.72;5007044;28;20030;-62
2022/01/27 08:51:34;;;;;;;28.17;11.15;;;;;;;1.41;95.59;101555.50;4992709;28;20018;-62
2022/01/27 08:54:00;;;;;;;23.50;9.32;;;;;;;1.42;95.03;101550.28;4992939;28;20478;-62
2022/01/27 08:56:25;;;;;;;33.08;13.52;;;;;;;1.52;95.44;101551.44;4992967;28;20034;-62
2022/01/27 08:58:51;;;;;;;27.42;10.88;;;;;;;1.42;95.40;101552.03;4991909;28;20089;-62
2022/01/27 09:01:17;;;;;;;29.08;10.73;;;;;;;1.54;95.39;101542.78;4991453;28;20033;-62
2022/01/27 09:03:42;;;;;;;33.63;11.63;;;;;;;1.58;94.38;101543.75;4992765;28;20046;-62
2022/01/27 09:06:09;;;;;;;39.00;12.35;;;;;;;1.48;95.61;101537.38;4999474;28;20386;-62
2022/01/27 09:08:34;;;;;;;36.75;14.45;;;;;;;1.59;95.81;101537.66;5011861;28;20018;-62
2022/01/27 09:10:59;;;;;;;42.63;18.67;;;;;;;1.60;97.13;101536.84;5011271;28;20462;-62
2022/01/27 09:13:25;;;;;;;30.35;14.73;;;;;;;1.58;97.09;101542.03;5011834;28;20112;-62
2022/01/27 09:15:50;;;;;;;32.55;12.18;;;;;;;1.53;98.12;101541.03;5011998;28;20429;-62
2022/01/27 09:18:17;;;;;;;38.17;13.32;;;;;;;1.55;98.88;101523.56;5010798;28;20403;-62
2022/01/27 09:20:43;;;;;;;41.42;15.05;;;;;;;1.58;98.77;101523.69;5005372;28;20037;-62
2022/01/27 09:23:13;;;;;;;43.65;13.93;;;;;;;1.69;99.12;101527.47;4992508;28;20032;-62
2022/01/27 09:25:45;;;;;;;33.55;12.90;;;;;;;1.62;98.56;101530.75;4992269;28;20065;-62
2022/01/27 09:28:12;;;;;;;34.92;12.85;;;;;;;1.53;99.16;101530.53;4992047;28;20026;-62
2022/01/27 09:30:39;;;;;;;35.22;14.38;;;;;;;1.50;99.74;101535.66;4992251;28;20014;-62
2022/01/27 09:33:05;;;;;;;33.47;11.68;;;;;;;1.44;100.00;101535.50;4992413;28;20026;-62
2022/01/27 09:35:31;;;;;;;37.70;14.38;;;;;;;1.48;100.00;101534.75;4992281;28;20037;-62
2022/01/27 09:37:57;;;;;;;31.63;13.07;;;;;;;1.46;99.58;101533.81;5010558;28;20029;-63
2022/01/27 09:40:23;;;;;;;33.78;12.13;;;;;;;1.56;99.58;101533.22;5011047;28;20030;-63
2022/01/27 09:42:54;;;;;;;41.38;13.95;;;;;;;1.56;98.75;101527.97;4995596;28;20053;-62
2022/01/27 09:45:21;;;;;;;37.72;12.77;;;;;;;1.51;99.06;101532.22;4991683;28;20474;-62
2022/01/27 09:48:20;;;;;;;35.67;12.48;;;;;;;1.50;99.00;101529.56;5000184;28;20026;-62
2022/01/27 09:53:10;;;;;;;33.88;13.13;;;;;;;1.47;98.22;101546.06;5011805;28;20116;-62
2022/01/27 09:55:36;;;;;;;22.88;11.15;;;;;;;1.39;97.79;101547.59;5008941;28;20113;-63
2022/01/27 09:58:02;;;;;;;29.85;11.07;;;;;;;1.30;97.77;101542.09;5011459;28;20041;-63
2022/01/27 10:00:28;;;;;;;30.67;10.10;;;;;;;1.34;98.38;101530.84;5011734;28;20026;-62
2022/01/27 10:03:13;;;;;;;35.53;11.57;;;;;;;1.54;98.84;101532.28;5010803;28;20026;-63
2022/01/27 10:05:41;;;;;;;33.47;13.00;;;;;;;1.68;99.91;101541.41;5011171;28;20033;-62
2022/01/27 10:08:11;;;;;;;28.35;10.27;;;;;;;1.80;98.86;101530.34;4991274;28;20069;-63
2022/01/27 10:10:42;;;;;;;36.53;12.55;;;;;;;1.85;97.52;101519.16;4990864;28;20031;-63
2022/01/27 10:13:10;;;;;;;30.85;12.63;;;;;;;1.91;97.38;101535.03;4990932;28;20482;-63
2022/01/27 10:15:43;;;;;;;27.05;10.25;;;;;;;1.97;96.38;101532.59;4993736;28;20096;-62
2022/01/27 10:18:17;;;;;;;34.22;14.38;;;;;;;1.86;96.28;101528.78;4991022;28;20153;-62
2022/01/27 10:20:59;;;;;;;29.40;12.98;;;;;;;1.75;96.66;101532.88;4990709;28;20030;-62
2022/01/27 10:23:41;;;;;;;27.30;11.23;;;;;;;1.88;97.13;101523.59;4990780;28;20419;-62
2022/01/27 10:26:30;;;;;;;29.88;13.48;;;;;;;1.98;96.34;101529.13;4990961;28;20035;-62
2022/01/27 10:29:09;;;;;;;27.80;11.70;;;;;;;2.02;96.75;101528.34;4990376;28;20026;-62
2022/01/27 10:31:38;;;;;;;27.42;11.55;;;;;;;2.09;95.40;101530.25;4990477;28;20018;-62
2022/01/27 10:34:06;;;;;;;34.53;12.18;;;;;;;2.08;95.35;101507.50;4993085;28;20477;-62
2022/01/27 10:36:40;;;;;;;30.50;11.23;;;;;;;2.19;95.10;101524.41;4998701;28;20025;-62
2022/01/27 10:39:08;;;;;;;24.38;11.77;;;;;;;2.16;94.62;101523.44;5010110;28;20029;-62
2022/01/27 10:41:36;;;;;;;30.05;12.40;;;;;;;2.23;94.42;101522.75;5010610;28;20474;-63
2022/01/27 10:44:17;;;;;;;26.48;10.57;;;;;;;2.21;94.33;101517.47;5010151;28;20327;-63
2022/01/27 10:47:16;;;;;;;29.70;11.48;;;;;;;2.21;94.34;101520.09;5010018;28;20481;-63
2022/01/27 10:49:47;;;;;;;24.25;9.93;;;;;;;2.25;94.60;101519.31;4991101;28;20039;-63
2022/01/27 10:52:44;;;;;;;35.28;11.23;;;;;;;2.33;95.11;101519.50;4990862;28;20381;-62
2022/01/27 10:55:18;;;;;;;25.38;11.07;;;;;;;2.31;94.11;101529.06;4990840;28;20030;-62
2022/01/27 10:57:49;;;;;;;27.63;12.25;;;;;;;2.23;94.49;101517.50;4990768;28;20037;-63
2022/01/27 11:00:20;;;;;;;24.80;10.93;;;;;;;2.29;94.60;101513.28;4990237;28;20031;-63
2022/01/27 11:03:03;;;;;;;27.67;11.18;;;;;;;2.19;94.28;101527.03;4991221;28;20030;-62
2022/01/27 11:05:31;;;;;;;27.42;10.77;;;;;;;2.21;94.76;101522.72;4991198;28;20383;-62
2022/01/27 11:07:58;;;;;;;24.50;10.57;;;;;;;2.29;94.32;101522.91;4995725;28;20038;-63
2022/01/27 11:10:24;;;;;;;29.27;10.43;;;;;;;2.36;94.33;101520.47;4990636;28;20031;-62
2022/01/27 11:12:50;;;;;;;32.13;11.95;;;;;;;2.49;94.72;101527.78;4990896;28;20511;-62
2022/01/27 11:15:17;;;;;;;28.67;11.68;;;;;;;2.58;94.36;101528.03;4990599;28;20023;-63
2022/01/27 11:17:45;;;;;;;28.02;11.90;;;;;;;2.50;93.05;101524.28;4992010;28;20050;-63
2022/01/27 11:28:03;;;;;;;28.67;11.70;;;;;;;2.65;92.86;101515.91;4994604;28;20113;-62
2022/01/27 11:31:08;;;;;;;27.58;10.30;;;;;;;2.76;92.42;101500.38;4994195;28;20427;-62
2022/01/27 11:33:35;;;;;;;24.25;9.43;;;;;;;2.77;91.59;101494.28;5013230;28;20025;-63
2022/01/27 11:36:10;;;;;;;27.40;12.50;;;;;;;2.64;91.29;101491.38;5010161;28;20034;-63
2022/01/27 11:38:38;;;;;;;23.52;10.32;;;;;;;2.60;90.83;101472.91;5014044;28;20026;-63
2022/01/27 11:41:03;;;;;;;28.13;12.57;;;;;;;2.66;91.59;101473.91;5013451;28;20429;-62
2022/01/27 11:43:35;;;;;;;27.00;13.02;;;;;;;2.66;91.58;101457.25;5013473;28;20034;-62
2022/01/27 11:46:14;;;;;;;34.03;11.65;;;;;;;2.77;91.45;101450.50;5013676;28;20393;-62
2022/01/27 11:48:40;;;;;;;24.50;10.52;;;;;;;2.79;91.45;101454.03;5014059;28;20088;-62
2022/01/27 11:51:07;;;;;;;28.92;11.63;;;;;;;2.89;90.92;101449.88;5002781;28;20034;-62
2022/01/27 11:53:48;;;;;;;21.52;10.23;;;;;;;2.90;89.58;101441.16;4993387;28;20057;-62
2022/01/27 11:56:30;;;;;;;25.33;9.68;;;;;;;2.78;89.48;101438.25;4994567;28;20029;-61
2022/01/27 11:59:13;;;;;;;22.80;10.55;;;;;;;2.75;89.78;101439.09;4993476;28;20073;-61
2022/01/27 12:01:38;;;;;;;27.60;12.52;;;;;;;2.87;89.86;101435.84;4995455;28;20041;-61
2022/01/27 12:04:07;;;;;;;30.95;11.75;;;;;;;2.99;90.60;101430.81;5011838;28;20474;-61
2022/01/27 12:06:40;;;;;;;24.83;11.00;;;;;;;2.89;89.07;101431.47;5005286;28;20065;-61